Time;durP1;ratioP1;P1;durP2;ratioP2;P2;SDS_P1;SDS_P2;PMS_P1;PMS_P2;Temp;Humidity;BMP_temperature;BMP_pressure;BME280_temperature;BME280_humidity;BME280_pressure;Samples;Min_cycle;Max_cycle;Signal;HPM_P1;HPM_P2
2023/12/12 00:02:15;;;;;;;;;;;;;;;9.90;70.06;99978.75;4880637;29;19923;-74
2023/12/12 00:05:17;;;;;;;;;;;;;;;9.82;69.22;99979.19;4880110;29;19927;-74
2023/12/12 00:08:20;;;;;;;;;;;;;;;9.77;70.49;99971.63;4880867;29;19987;-73
2023/12/12 00:11:24;;;;;;;;;;;;;;;9.84;70.27;99972.13;4880526;29;20349;-73
2023/12/12 00:14:27;;;;;;;;;;;;;;;9.75;69.95;99970.88;4880591;29;19922;-73
2023/12/12 00:17:29;;;;;;;;;;;;;;;9.85;69.51;99958.13;4880497;29;19922;-73
2023/12/12 00:20:32;;;;;;;;;;;;;;;9.83;70.46;99973.06;4880394;29;19927;-73
2023/12/12 00:23:35;;;;;;;;;;;;;;;9.85;71.68;99976.41;4880594;29;19970;-73
2023/12/12 00:26:38;;;;;;;;;;;;;;;9.87;72.06;99981.56;4880515;29;19938;-74
2023/12/12 00:29:40;;;;;;;;;;;;;;;9.95;71.17;99981.94;4880138;29;19922;-74
2023/12/12 00:32:44;;;;;;;;;;;;;;;9.73;70.53;99964.91;4880194;29;19922;-73
2023/12/12 00:35:47;;;;;;;;;;;;;;;9.76;71.94;99969.09;4880118;29;20428;-74
2023/12/12 00:38:50;;;;;;;;;;;;;;;9.74;72.97;99966.59;4879811;29;19972;-78
2023/12/12 00:41:54;;;;;;;;;;;;;;;9.71;72.01;99965.94;4880001;29;20453;-74
2023/12/12 00:44:57;;;;;;;;;;;;;;;9.67;72.17;99970.50;4880263;29;19922;-74
2023/12/12 00:47:59;;;;;;;;;;;;;;;9.73;72.33;99969.28;4880030;29;19972;-74
2023/12/12 00:51:02;;;;;;;;;;;;;;;9.72;74.22;99980.66;4879867;29;19927;-74
2023/12/12 00:54:05;;;;;;;;;;;;;;;9.71;74.05;99974.59;4879788;29;19923;-74
2023/12/12 00:57:08;;;;;;;;;;;;;;;9.66;73.76;99967.94;4879782;29;20415;-74
2023/12/12 01:00:11;;;;;;;;;;;;;;;9.76;73.52;99964.75;4879855;29;19922;-74
2023/12/12 01:03:14;;;;;;;;;;;;;;;9.80;74.04;99969.78;4879786;29;20394;-74
2023/12/12 01:06:21;;;;;;;;;;;;;;;9.73;75.03;99962.31;4879756;29;19938;-74
2023/12/12 01:09:24;;;;;;;;;;;;;;;9.64;74.63;99967.22;4874613;29;20367;-74
2023/12/12 01:12:28;;;;;;;;;;;;;;;9.51;75.77;99977.53;4879677;29;20337;-74
2023/12/12 01:15:31;;;;;;;;;;;;;;;9.51;76.57;99972.28;4879578;29;19922;-74
2023/12/12 01:18:37;;;;;;;;;;;;;;;9.48;76.93;99973.31;4879676;29;20360;-74
2023/12/12 01:21:40;;;;;;;;;;;;;;;9.43;77.22;99967.50;4879604;29;20010;-74
2023/12/12 01:24:44;;;;;;;;;;;;;;;9.31;78.22;99968.19;4879550;29;19923;-74
2023/12/12 01:27:46;;;;;;;;;;;;;;;9.34;78.32;99964.56;4879533;29;19970;-74
2023/12/12 01:30:50;;;;;;;;;;;;;;;9.37;78.50;99975.66;4879444;29;19942;-74
2023/12/12 01:33:53;;;;;;;;;;;;;;;9.31;78.76;99974.22;4879665;29;19923;-74
2023/12/12 01:36:56;;;;;;;;;;;;;;;9.16;79.74;99976.88;4879399;29;19972;-74
2023/12/12 01:39:59;;;;;;;;;;;;;;;9.20;79.72;99978.38;4879252;29;20398;-74
2023/12/12 01:43:05;;;;;;;;;;;;;;;9.22;80.01;99968.69;4879455;29;19981;-74
2023/12/12 01:46:11;;;;;;;;;;;;;;;9.06;81.51;99968.69;4879771;29;19923;-74
2023/12/12 01:49:18;;;;;;;;;;;;;;;9.08;81.55;99961.63;4879344;29;19922;-73
2023/12/12 01:52:22;;;;;;;;;;;;;;;9.13;81.20;99959.63;4879236;29;20292;-74
2023/12/12 01:55:25;;;;;;;;;;;;;;;8.88;83.16;99970.56;4879295;29;19922;-73
2023/12/12 01:58:30;;;;;;;;;;;;;;;8.69;84.07;99960.28;4879331;29;20460;-73
2023/12/12 02:01:33;;;;;;;;;;;;;;;8.89;83.23;99958.34;4879249;29;20399;-73
2023/12/12 02:04:37;;;;;;;;;;;;;;;8.85;83.28;99960.28;4879181;29;19922;-73
2023/12/12 02:07:40;;;;;;;;;;;;;;;8.89;83.33;99955.75;4879425;29;20343;-73
2023/12/12 02:10:44;;;;;;;;;;;;;;;8.83;84.07;99962.97;4879161;29;20431;-73
2023/12/12 02:13:48;;;;;;;;;;;;;;;8.89;83.77;99963.56;4879126;29;19954;-73
2023/12/12 02:16:51;;;;;;;;;;;;;;;8.92;83.84;99966.84;4879123;29;20415;-74
2023/12/12 02:19:54;;;;;;;;;;;;;;;8.92;83.68;99966.84;4879410;29;19938;-73
2023/12/12 02:22:57;;;;;;;;;;;;;;;8.91;83.77;99974.75;4878931;29;19922;-73
2023/12/12 02:26:01;;;;;;;;;;;;;;;8.91;84.04;99972.16;4878971;29;20007;-73
2023/12/12 02:29:04;;;;;;;;;;;;;;;8.78;84.45;99969.38;4882395;29;20063;-74
2023/12/12 02:32:07;;;;;;;;;;;;;;;8.73;85.08;99971.38;4882334;29;19969;-74
2023/12/12 02:35:10;;;;;;;;;;;;;;;8.82;84.85;99970.88;4882293;29;20368;-73
2023/12/12 02:38:16;;;;;;;;;;;;;;;8.85;84.41;99965.50;4882075;29;19923;-73
2023/12/12 02:41:19;;;;;;;;;;;;;;;8.89;84.45;99969.63;4882111;29;19927;-73
2023/12/12 02:44:22;;;;;;;;;;;;;;;8.76;85.81;99966.81;4882461;29;19971;-74
2023/12/12 02:47:25;;;;;;;;;;;;;;;8.76;85.91;99959.00;4882059;29;20363;-73
2023/12/12 02:50:28;;;;;;;;;;;;;;;8.73;85.89;99963.53;4881946;29;19975;-73
2023/12/12 02:53:31;;;;;;;;;;;;;;;8.70;86.18;99961.09;4881931;29;19926;-73
2023/12/12 02:56:34;;;;;;;;;;;;;;;8.71;85.75;99962.78;4882173;29;20107;-74
2023/12/12 02:59:37;;;;;;;;;;;;;;;8.60;85.99;99961.59;4882054;29;20337;-74
2023/12/12 03:02:40;;;;;;;;;;;;;;;8.53;86.47;99948.97;4882113;29;19923;-74
2023/12/12 03:05:43;;;;;;;;;;;;;;;8.54;87.10;99956.69;4881737;29;20003;-73
2023/12/12 03:08:46;;;;;;;;;;;;;;;8.53;87.38;99955.03;4881614;29;19926;-73
2023/12/12 03:11:51;;;;;;;;;;;;;;;8.51;87.56;99956.88;4881638;29;19966;-73
2023/12/12 03:14:56;;;;;;;;;;;;;;;8.56;87.14;99954.03;4881604;29;19922;-73
2023/12/12 03:17:59;;;;;;;;;;;;;;;8.60;86.52;99965.97;4881683;29;19927;-73
2023/12/12 03:21:02;;;;;;;;;;;;;;;8.50;87.03;99959.56;4881474;29;19984;-73
2023/12/12 03:24:05;;;;;;;;;;;;;;;8.46;87.59;99969.31;4881438;29;19927;-73
2023/12/12 03:27:08;;;;;;;;;;;;;;;8.40;87.97;99972.22;4881368;29;19922;-73
2023/12/12 03:30:11;;;;;;;;;;;;;;;8.47;87.49;99973.59;4881262;29;19927;-73
2023/12/12 03:33:14;;;;;;;;;;;;;;;8.44;87.41;99972.91;4881501;29;19923;-73
2023/12/12 03:36:18;;;;;;;;;;;;;;;8.44;87.45;99967.69;4881250;29;20364;-73
2023/12/12 03:39:21;;;;;;;;;;;;;;;8.42;87.68;99959.09;4879967;29;19926;-73
2023/12/12 03:42:24;;;;;;;;;;;;;;;8.22;88.25;99966.16;4881124;29;19971;-73
2023/12/12 03:45:27;;;;;;;;;;;;;;;8.21;88.84;99959.28;4881094;29;20014;-73
2023/12/12 03:48:30;;;;;;;;;;;;;;;8.33;88.59;99957.81;4881035;29;20428;-73
2023/12/12 03:51:33;;;;;;;;;;;;;;;8.33;88.42;99952.59;4880896;29;19930;-73
2023/12/12 03:54:36;;;;;;;;;;;;;;;8.35;88.69;99950.75;4881182;29;20284;-73
2023/12/12 03:57:40;;;;;;;;;;;;;;;8.41;88.55;99950.47;4880812;29;19971;-73
2023/12/12 04:00:43;;;;;;;;;;;;;;;8.44;88.30;99942.47;4880730;29;19922;-73
2023/12/12 04:03:46;;;;;;;;;;;;;;;8.44;88.27;99949.47;4880690;29;19923;-73
2023/12/12 04:06:49;;;;;;;;;;;;;;;8.30;88.99;99953.59;4880609;29;19922;-73
2023/12/12 04:09:52;;;;;;;;;;;;;;;8.28;89.05;99950.22;4880790;29;19930;-73
2023/12/12 04:12:56;;;;;;;;;;;;;;;8.12;90.13;99950.16;4880756;29;20391;-73
2023/12/12 04:15:59;;;;;;;;;;;;;;;8.20;90.06;99943.72;4880528;29;20007;-73
2023/12/12 04:19:03;;;;;;;;;;;;;;;8.19;90.12;99937.66;4880734;29;19927;-73
2023/12/12 04:22:06;;;;;;;;;;;;;;;8.21;89.97;99924.59;4880312;29;19971;-73
2023/12/12 04:25:12;;;;;;;;;;;;;;;8.14;90.37;99922.31;4880370;29;19923;-73
2023/12/12 04:28:15;;;;;;;;;;;;;;;8.16;90.22;99925.66;4880292;29;20002;-72
2023/12/12 04:31:18;;;;;;;;;;;;;;;8.09;90.33;99919.06;4880200;29;19926;-72
2023/12/12 04:34:22;;;;;;;;;;;;;;;8.11;89.92;99917.25;4880240;29;19948;-73
2023/12/12 04:37:25;;;;;;;;;;;;;;;8.10;89.89;99917.31;4880078;29;19922;-73
2023/12/12 04:40:29;;;;;;;;;;;;;;;8.04;90.05;99907.22;4879911;29;19926;-73
2023/12/12 04:43:32;;;;;;;;;;;;;;;7.99;90.47;99912.66;4880084;29;20464;-73
2023/12/12 04:46:35;;;;;;;;;;;;;;;8.00;90.25;99914.34;4880012;29;19921;-73
2023/12/12 04:49:39;;;;;;;;;;;;;;;8.02;89.75;99899.50;4879651;29;20336;-73
2023/12/12 04:52:41;;;;;;;;;;;;;;;7.99;90.27;99899.66;4879830;29;19927;-74
2023/12/12 04:55:44;;;;;;;;;;;;;;;7.89;90.86;99899.28;4879951;29;20299;-73
2023/12/12 04:58:47;;;;;;;;;;;;;;;7.90;90.73;99900.97;4879827;29;19923;-73
2023/12/12 05:01:50;;;;;;;;;;;;;;;7.96;90.39;99907.63;4879785;29;20068;-76
2023/12/12 05:04:53;;;;;;;;;;;;;;;7.95;89.97;99905.09;4879758;29;20378;-73
2023/12/12 05:07:56;;;;;;;;;;;;;;;7.92;90.57;99900.91;4879555;29;19972;-76
2023/12/12 05:11:00;;;;;;;;;;;;;;;7.91;90.85;99900.06;4879758;29;19970;-73
2023/12/12 05:14:07;;;;;;;;;;;;;;;7.96;90.87;99894.59;4879942;29;20035;-74
2023/12/12 05:17:10;;;;;;;;;;;;;;;7.93;90.72;99893.00;4879597;29;19923;-74
2023/12/12 05:20:13;;;;;;;;;;;;;;;8.00;90.50;99890.91;4879524;29;19923;-73
2023/12/12 05:23:17;;;;;;;;;;;;;;;7.96;90.01;99886.78;4879512;29;19922;-75
2023/12/12 05:26:20;;;;;;;;;;;;;;;7.91;90.25;99887.03;4873234;29;19923;-76
2023/12/12 05:29:23;;;;;;;;;;;;;;;7.91;90.34;99892.25;4879704;29;20495;-73
2023/12/12 05:32:26;;;;;;;;;;;;;;;7.95;91.19;99895.53;4879737;29;19927;-76
2023/12/12 05:35:29;;;;;;;;;;;;;;;7.90;91.64;99892.31;4879527;29;19923;-76
2023/12/12 05:38:35;;;;;;;;;;;;;;;8.00;91.31;99898.72;4879350;29;19970;-77
2023/12/12 05:41:38;;;;;;;;;;;;;;;7.97;91.37;99892.84;4861156;29;19979;-76
2023/12/12 05:44:41;;;;;;;;;;;;;;;8.02;91.60;99888.25;4860844;29;20284;-76
2023/12/12 05:47:44;;;;;;;;;;;;;;;7.99;91.42;99884.03;4860904;29;20032;-76
2023/12/12 05:50:47;;;;;;;;;;;;;;;7.94;91.53;99888.63;4860748;29;19976;-77
2023/12/12 05:53:51;;;;;;;;;;;;;;;7.95;91.53;99892.94;4860545;29;20288;-78
2023/12/12 05:56:54;;;;;;;;;;;;;;;7.79;92.66;99886.81;4860734;29;19923;-78
2023/12/12 05:59:58;;;;;;;;;;;;;;;7.91;92.15;99889.66;4861346;29;19964;-78
2023/12/12 06:03:02;;;;;;;;;;;;;;;7.90;91.98;99884.50;4863457;29;20407;-78
2023/12/12 06:06:07;;;;;;;;;;;;;;;7.86;92.48;99893.41;4864403;29;20467;-78
2023/12/12 06:09:11;;;;;;;;;;;;;;;7.76;92.98;99874.81;4852789;29;19923;-80
2023/12/12 06:12:17;;;;;;;;;;;;;;;7.77;92.79;99880.84;4864133;29;20452;-80
2023/12/12 06:15:20;;;;;;;;;;;;;;;7.73;93.32;99879.34;4864069;29;19923;-80
2023/12/12 06:22:18;;;;;;;;;;;;;;;7.62;92.82;99878.09;4862336;29;19923;-79
2023/12/12 06:25:22;;;;;;;;;;;;;;;7.65;92.56;99875.34;4863934;29;20356;-79
2023/12/12 06:28:24;;;;;;;;;;;;;;;7.55;92.75;99881.91;4863873;29;19939;-79
2023/12/12 06:31:27;;;;;;;;;;;;;;;7.49;93.27;99882.22;4863938;29;19943;-80
2023/12/12 06:34:30;;;;;;;;;;;;;;;7.44;92.54;99884.22;4864161;29;19981;-80
2023/12/12 06:37:33;;;;;;;;;;;;;;;7.34;92.39;99877.78;4863829;29;19942;-81
2023/12/12 06:40:37;;;;;;;;;;;;;;;7.22;92.08;99874.88;4883012;29;19927;-80
2023/12/12 06:43:42;;;;;;;;;;;;;;;7.12;92.30;99865.84;4883428;29;19923;-79
2023/12/12 06:46:45;;;;;;;;;;;;;;;6.99;91.40;99868.19;4882518;29;20303;-79
2023/12/12 06:49:48;;;;;;;;;;;;;;;6.93;91.44;99859.84;4882170;29;19964;-79
2023/12/12 06:52:51;;;;;;;;;;;;;;;6.93;92.41;99858.09;4882120;29;19960;-78
2023/12/12 06:55:54;;;;;;;;;;;;;;;6.84;91.95;99847.28;4882012;29;19923;-72
2023/12/12 06:58:57;;;;;;;;;;;;;;;6.78;91.65;99847.59;4881830;29;19922;-76
2023/12/12 07:02:00;;;;;;;;;;;;;;;6.70;91.33;99841.00;4880887;29;20383;-76
2023/12/12 07:05:06;;;;;;;;;;;;;;;6.77;91.25;99848.50;4881796;29;19938;-76
2023/12/12 07:08:09;;;;;;;;;;;;;;;6.66;91.27;99855.03;4881691;29;20003;-76
2023/12/12 07:11:12;;;;;;;;;;;;;;;6.65;91.73;99863.75;4881602;29;19972;-74
2023/12/12 07:14:15;;;;;;;;;;;;;;;6.48;91.97;99856.75;4881367;29;19922;-75
2023/12/12 07:17:18;;;;;;;;;;;;;;;6.46;91.44;99850.75;4881167;29;19999;-75
2023/12/12 07:20:21;;;;;;;;;;;;;;;6.43;90.98;99852.66;4880661;29;19922;-75
2023/12/12 07:23:24;;;;;;;;;;;;;;;6.35;91.27;99849.56;4881318;29;19980;-75
2023/12/12 07:26:27;;;;;;;;;;;;;;;6.31;91.04;99853.22;4880880;29;19922;-74
2023/12/12 07:29:31;;;;;;;;;;;;;;;6.27;90.79;99852.50;4880847;29;19964;-75
2023/12/12 07:32:34;;;;;;;;;;;;;;;6.33;91.04;99848.81;4880592;29;19930;-75
2023/12/12 07:35:37;;;;;;;;;;;;;;;6.34;90.96;99842.69;4876899;29;20395;-73
2023/12/12 07:38:40;;;;;;;;;;;;;;;6.26;90.66;99830.91;4877160;29;19922;-73
2023/12/12 07:41:43;;;;;;;;;;;;;;;6.19;92.01;99826.03;4880519;29;19926;-74
2023/12/12 07:44:46;;;;;;;;;;;;;;;6.16;91.22;99829.66;4880490;29;19922;-74
2023/12/12 07:47:49;;;;;;;;;;;;;;;6.08;90.92;99830.91;4880504;29;19922;-74
2023/12/12 07:50:51;;;;;;;;;;;;;;;6.14;90.43;99835.81;4880254;29;20451;-74
2023/12/12 07:53:54;;;;;;;;;;;;;;;5.99;91.46;99826.94;4880298;29;19923;-74
2023/12/12 07:56:58;;;;;;;;;;;;;;;6.02;91.19;99826.81;4880241;29;19938;-76
2023/12/12 08:00:01;;;;;;;;;;;;;;;5.94;91.52;99828.94;4880523;29;19992;-75
2023/12/12 08:03:06;;;;;;;;;;;;;;;5.92;90.76;99831.53;4879561;29;19922;-74
2023/12/12 08:06:09;;;;;;;;;;;;;;;5.99;90.50;99839.94;4870309;29;20340;-75
2023/12/12 08:09:12;;;;;;;;;;;;;;;5.99;91.04;99853.75;4879370;29;20349;-75
2023/12/12 08:12:16;;;;;;;;;;;;;;;5.92;91.13;99841.91;4879584;29;20395;-74
2023/12/12 08:15:20;;;;;;;;;;;;;;;5.92;90.79;99835.88;4879596;29;19922;-74
2023/12/12 08:18:23;;;;;;;;;;;;;;;5.96;90.90;99827.91;4879594;29;19923;-74
2023/12/12 08:21:26;;;;;;;;;;;;;;;5.95;90.65;99835.78;4880114;29;19958;-74
2023/12/12 08:24:28;;;;;;;;;;;;;;;5.92;90.80;99830.69;4879382;29;20344;-74
2023/12/12 08:27:32;;;;;;;;;;;;;;;5.93;90.87;99830.66;4875737;29;19962;-74
2023/12/12 08:30:35;;;;;;;;;;;;;;;6.00;90.14;99828.66;4879667;29;19926;-74
2023/12/12 08:33:40;;;;;;;;;;;;;;;5.95;90.35;99823.66;4879575;29;19922;-74
2023/12/12 08:36:43;;;;;;;;;;;;;;;6.06;90.61;99823.16;4879762;29;19922;-74
2023/12/12 08:39:48;;;;;;;;;;;;;;;6.08;90.80;99825.72;4879414;29;20065;-75
2023/12/12 08:46:44;;;;;;;;;;;;;;;6.29;90.55;99835.97;4878297;29;19922;-74
2023/12/12 08:49:47;;;;;;;;;;;;;;;6.40;90.46;99832.03;4878649;29;20038;-74
2023/12/12 08:52:50;;;;;;;;;;;;;;;6.41;90.83;99825.91;4882432;29;20026;-74
2023/12/12 08:55:54;;;;;;;;;;;;;;;6.34;90.80;99822.75;4890546;29;19923;-74
2023/12/12 08:58:58;;;;;;;;;;;;;;;6.40;90.84;99816.44;4898159;29;19922;-74
2023/12/12 09:02:01;;;;;;;;;;;;;;;6.36;91.04;99815.75;4897826;29;19924;-74
2023/12/12 09:05:04;;;;;;;;;;;;;;;6.57;90.37;99805.25;4897848;29;19963;-75
2023/12/12 09:08:07;;;;;;;;;;;;;;;6.67;90.13;99796.97;4897706;29;19986;-74
2023/12/12 09:11:10;;;;;;;;;;;;;;;6.73;90.28;99796.69;4897718;29;19926;-75
2023/12/12 09:14:14;;;;;;;;;;;;;;;6.78;90.29;99785.22;4897888;29;20357;-76
2023/12/12 09:17:17;;;;;;;;;;;;;;;6.75;91.01;99779.25;4897847;29;19922;-75
2023/12/12 09:20:20;;;;;;;;;;;;;;;6.74;91.72;99780.19;4897635;29;19922;-75
2023/12/12 09:23:27;;;;;;;;;;;;;;;6.81;91.18;99772.91;4892389;29;19980;-75
2023/12/12 09:26:31;;;;;;;;;;;;;;;6.86;91.18;99772.69;4897671;29;20299;-75
2023/12/12 09:29:34;;;;;;;;;;;;;;;6.90;90.68;99774.25;4893181;29;19923;-75
2023/12/12 09:32:36;;;;;;;;;;;;;;;7.00;90.19;99775.47;4894207;29;20015;-75
2023/12/12 09:35:39;;;;;;;;;;;;;;;6.90;90.32;99758.66;4894429;29;19922;-75
2023/12/12 09:38:42;;;;;;;;;;;;;;;7.00;90.23;99762.47;4900892;29;19925;-75
2023/12/12 09:41:47;;;;;;;;;;;;;;;6.89;90.44;99742.22;4901449;29;19926;-75
2023/12/12 09:44:56;;;;;;;;;;;;;;;6.80;91.83;99742.66;4901325;29;20299;-75
2023/12/12 09:47:59;;;;;;;;;;;;;;;7.05;91.79;99747.50;4900209;29;19922;-75
2023/12/12 09:51:03;;;;;;;;;;;;;;;7.21;91.39;99739.72;4901198;29;19930;-75
2023/12/12 09:54:07;;;;;;;;;;;;;;;7.30;90.58;99739.25;4901281;29;19979;-75
2023/12/12 09:57:11;;;;;;;;;;;;;;;7.32;90.52;99731.41;4901088;29;20005;-75
2023/12/12 10:00:14;;;;;;;;;;;;;;;7.36;90.45;99727.72;4887587;29;20435;-75
2023/12/12 10:03:18;;;;;;;;;;;;;;;7.44;90.77;99722.97;4901131;29;19979;-75
2023/12/12 10:06:24;;;;;;;;;;;;;;;7.42;90.57;99725.63;4900945;29;19984;-75
2023/12/12 10:09:31;;;;;;;;;;;;;;;7.36;90.61;99714.72;4900990;29;20070;-75
2023/12/12 10:12:35;;;;;;;;;;;;;;;7.32;90.78;99708.00;4897048;29;20027;-75
2023/12/12 10:15:37;;;;;;;;;;;;;;;7.45;91.17;99693.44;4899871;29;20288;-75
2023/12/12 10:18:41;;;;;;;;;;;;;;;7.54;91.49;99685.13;4899419;29;20391;-75
2023/12/12 10:21:44;;;;;;;;;;;;;;;7.60;91.54;99686.59;4900184;29;19922;-76
2023/12/12 10:24:47;;;;;;;;;;;;;;;7.58;90.48;99689.25;4900874;29;19922;-75
2023/12/12 10:27:53;;;;;;;;;;;;;;;7.55;90.38;99679.00;4900592;29;19923;-75
2023/12/12 10:30:56;;;;;;;;;;;;;;;7.71;90.93;99673.00;4900679;29;20339;-75
2023/12/12 10:37:57;;;;;;;;;;;;;;;7.97;89.95;99658.53;4899254;29;20278;-75
2023/12/12 10:41:22;;;;;;;;;;;;;;;8.07;89.26;99655.38;4900254;29;19985;-76
2023/12/12 10:44:28;;;;;;;;;;;;;;;8.18;89.52;99639.13;4900587;29;19963;-76
2023/12/12 10:47:32;;;;;;;;;;;;;;;8.23;89.86;99638.84;4900101;29;19922;-76
2023/12/12 10:50:38;;;;;;;;;;;;;;;8.41;89.31;99637.00;4900069;29;19926;-76
2023/12/12 10:53:42;;;;;;;;;;;;;;;8.47;88.97;99619.25;4900172;29;20002;-76
2023/12/12 10:56:46;;;;;;;;;;;;;;;8.40;89.05;99615.34;4900124;29;20374;-76
2023/12/12 10:59:51;;;;;;;;;;;;;;;8.44;89.32;99609.00;4900101;29;20386;-76
2023/12/12 11:02:55;;;;;;;;;;;;;;;8.39;89.08;99598.00;4899890;29;19921;-76
2023/12/12 11:05:59;;;;;;;;;;;;;;;8.44;89.32;99596.00;4899352;29;19973;-76
2023/12/12 11:09:03;;;;;;;;;;;;;;;8.53;89.11;99597.22;4899724;29;20463;-75
2023/12/12 11:12:07;;;;;;;;;;;;;;;8.57;88.90;99585.69;4898936;29;19926;-75
2023/12/12 11:15:12;;;;;;;;;;;;;;;8.63;89.76;99587.94;4899346;29;19958;-75
2023/12/12 11:18:26;;;;;;;;;;;;;;;8.61;90.65;99585.44;4894728;29;20409;-76
2023/12/12 11:21:48;;;;;;;;;;;;;;;8.56;91.62;99574.44;4899547;29;19923;-76
2023/12/12 11:25:07;;;;;;;;;;;;;;;8.33;94.23;99573.16;4899353;29;19974;-76
2023/12/12 11:28:10;;;;;;;;;;;;;;;8.48;93.50;99561.00;4899978;29;19970;-76
2023/12/12 11:31:39;;;;;;;;;;;;;;;8.55;93.07;99556.25;4899434;29;19944;-76
2023/12/12 11:35:07;;;;;;;;;;;;;;;8.42;93.82;99547.50;4890138;29;20434;-76
2023/12/12 11:38:50;;;;;;;;;;;;;;;8.45;93.96;99542.13;4899659;29;20336;-77
2023/12/12 11:46:20;;;;;;;;;;;;;;;8.64;94.16;99528.84;4899286;29;20268;-74
2023/12/12 11:49:24;;;;;;;;;;;;;;;8.71;94.79;99524.91;4898868;29;19987;-76
2023/12/12 11:52:39;;;;;;;;;;;;;;;8.64;94.72;99513.19;4898629;29;19926;-74
2023/12/12 11:55:42;;;;;;;;;;;;;;;8.60;94.07;99510.78;4898788;29;20352;-74
2023/12/12 11:58:45;;;;;;;;;;;;;;;8.52;94.21;99505.19;4898579;29;19971;-74
2023/12/12 12:01:49;;;;;;;;;;;;;;;8.42;95.99;99498.84;4898413;29;19962;-74
2023/12/12 12:04:52;;;;;;;;;;;;;;;8.57;97.01;99497.94;4898626;29;20375;-74
2023/12/12 12:07:55;;;;;;;;;;;;;;;8.77;96.21;99482.84;4898503;29;19994;-75
2023/12/12 12:10:59;;;;;;;;;;;;;;;8.81;95.90;99469.53;4898446;29;20058;-74
2023/12/12 12:14:02;;;;;;;;;;;;;;;8.88;96.31;99471.78;4898240;29;20002;-74
2023/12/12 12:17:05;;;;;;;;;;;;;;;8.93;96.39;99462.72;4898329;29;19938;-74
2023/12/12 12:20:08;;;;;;;;;;;;;;;8.86;96.98;99456.22;4898255;29;19971;-75
2023/12/12 12:23:11;;;;;;;;;;;;;;;8.78;98.22;99454.09;4898228;29;19975;-75
2023/12/12 12:26:15;;;;;;;;;;;;;;;8.71;97.78;99459.75;4898349;29;19922;-74
2023/12/12 12:29:18;;;;;;;;;;;;;;;8.74;98.67;99454.38;4898175;29;19962;-74
2023/12/12 12:32:22;;;;;;;;;;;;;;;8.72;98.91;99445.81;4897993;29;20025;-74
2023/12/12 12:35:25;;;;;;;;;;;;;;;8.93;98.02;99441.84;4898151;29;19922;-74
2023/12/12 12:38:31;;;;;;;;;;;;;;;8.91;98.61;99448.13;4897864;29;19970;-74
2023/12/12 12:41:34;;;;;;;;;;;;;;;8.74;100.00;99441.34;4897784;29;19975;-74
2023/12/12 12:44:37;;;;;;;;;;;;;;;8.76;100.00;99429.88;4894371;29;19922;-74
2023/12/12 12:47:40;;;;;;;;;;;;;;;8.90;99.55;99426.41;4894837;29;19922;-75
2023/12/12 12:50:45;;;;;;;;;;;;;;;9.00;99.13;99426.69;4897480;29;19945;-74
2023/12/12 12:53:48;;;;;;;;;;;;;;;8.92;99.43;99419.34;4897871;29;19938;-74
2023/12/12 12:56:52;;;;;;;;;;;;;;;8.95;99.01;99413.09;4897529;29;19966;-73
2023/12/12 12:59:55;;;;;;;;;;;;;;;9.00;99.05;99406.66;4895866;29;20416;-74
2023/12/12 13:02:58;;;;;;;;;;;;;;;9.00;99.97;99406.66;4897489;29;20386;-74
2023/12/12 13:06:01;;;;;;;;;;;;;;;9.10;100.00;99404.31;4897502;29;20010;-74
2023/12/12 13:09:09;;;;;;;;;;;;;;;9.08;99.68;99401.78;4897409;29;19921;-74
2023/12/12 13:12:12;;;;;;;;;;;;;;;8.83;100.00;99399.88;4897170;29;20374;-74
2023/12/12 13:15:14;;;;;;;;;;;;;;;8.91;100.00;99391.59;4897458;29;19922;-75
2023/12/12 13:18:17;;;;;;;;;;;;;;;8.85;100.00;99390.22;4897590;29;19922;-75
2023/12/12 13:21:20;;;;;;;;;;;;;;;8.83;100.00;99389.47;4897294;29;19926;-75
2023/12/12 13:24:24;;;;;;;;;;;;;;;8.77;100.00;99387.25;4892501;29;19922;-76
2023/12/12 13:27:27;;;;;;;;;;;;;;;8.71;100.00;99389.41;4898719;29;19938;-73
2023/12/12 13:30:30;;;;;;;;;;;;;;;8.78;100.00;99385.50;4893127;29;20383;-76
2023/12/12 13:33:33;;;;;;;;;;;;;;;8.90;100.00;99379.47;4897514;29;20453;-73
2023/12/12 13:36:36;;;;;;;;;;;;;;;8.92;100.00;99376.78;4893814;29;19923;-73
2023/12/12 13:39:39;;;;;;;;;;;;;;;8.84;100.00;99377.28;4897288;29;19926;-73
2023/12/12 13:42:43;;;;;;;;;;;;;;;8.56;100.00;99375.56;4886623;29;19991;-74
2023/12/12 13:45:45;;;;;;;;;;;;;;;8.75;100.00;99370.06;4890735;29;19926;-73
2023/12/12 13:48:48;;;;;;;;;;;;;;;8.87;100.00;99366.66;4882093;29;20401;-73
2023/12/12 13:51:51;;;;;;;;;;;;;;;8.87;100.00;99358.00;4891541;29;20347;-76
2023/12/12 13:54:54;;;;;;;;;;;;;;;8.87;100.00;99353.63;4880373;29;19930;-75
2023/12/12 13:57:57;;;;;;;;;;;;;;;8.89;100.00;99359.56;4885205;29;19980;-74
2023/12/12 14:01:01;;;;;;;;;;;;;;;8.77;100.00;99362.94;4886275;29;19971;-75
2023/12/12 14:04:05;;;;;;;;;;;;;;;8.83;100.00;99352.13;4881715;29;19923;-75
2023/12/12 14:07:08;;;;;;;;;;;;;;;8.74;100.00;99344.91;4887702;29;20392;-76
2023/12/12 14:10:11;;;;;;;;;;;;;;;8.76;100.00;99341.28;4883196;29;19978;-75
2023/12/12 14:13:16;;;;;;;;;;;;;;;8.74;100.00;99337.94;4889135;29;19922;-75
2023/12/12 14:16:19;;;;;;;;;;;;;;;8.69;100.00;99340.00;4879141;29;20435;-75
2023/12/12 14:19:23;;;;;;;;;;;;;;;8.77;100.00;99326.47;4883068;29;20276;-75
2023/12/12 14:22:26;;;;;;;;;;;;;;;8.77;100.00;99332.50;4880628;29;19927;-75
2023/12/12 14:25:29;;;;;;;;;;;;;;;8.79;100.00;99324.59;4881618;29;19958;-75
2023/12/12 14:28:32;;;;;;;;;;;;;;;8.75;100.00;99328.34;4876707;29;19988;-75
2023/12/12 14:31:35;;;;;;;;;;;;;;;8.74;100.00;99324.06;4881466;29;19979;-76
2023/12/12 14:34:40;;;;;;;;;;;;;;;8.77;100.00;99323.84;4881628;29;19922;-76
2023/12/12 14:37:43;;;;;;;;;;;;;;;8.83;100.00;99315.66;4881486;29;19975;-76
2023/12/12 14:40:49;;;;;;;;;;;;;;;8.90;100.00;99314.31;4881232;29;19930;-76
2023/12/12 14:43:52;;;;;;;;;;;;;;;8.89;100.00;99314.44;4881489;29;20335;-75
2023/12/12 14:46:56;;;;;;;;;;;;;;;8.85;100.00;99313.78;4881477;29;20347;-77
2023/12/12 14:49:59;;;;;;;;;;;;;;;8.71;100.00;99311.22;4881659;29;19958;-76
2023/12/12 14:53:03;;;;;;;;;;;;;;;8.59;100.00;99311.09;4881328;29;19926;-76
2023/12/12 14:56:10;;;;;;;;;;;;;;;8.68;100.00;99307.06;4881503;29;19923;-77
2023/12/12 14:59:13;;;;;;;;;;;;;;;8.59;100.00;99303.25;4881179;29;19970;-77
2023/12/12 15:02:16;;;;;;;;;;;;;;;8.71;100.00;99300.78;4881245;29;19922;-77
2023/12/12 15:05:20;;;;;;;;;;;;;;;8.78;100.00;99296.88;4881532;29;19923;-76
2023/12/12 15:08:23;;;;;;;;;;;;;;;8.79;100.00;99282.91;4891774;29;20331;-76
2023/12/12 15:11:26;;;;;;;;;;;;;;;8.81;100.00;99288.88;4886220;29;20378;-77
2023/12/12 15:14:30;;;;;;;;;;;;;;;8.86;100.00;99289.38;4891708;29;19926;-75
2023/12/12 15:17:33;;;;;;;;;;;;;;;8.90;100.00;99293.47;4881536;29;20382;-76
2023/12/12 15:20:36;;;;;;;;;;;;;;;8.88;100.00;99287.53;4881363;29;19980;-76
2023/12/12 15:23:42;;;;;;;;;;;;;;;8.87;100.00;99278.03;4881333;29;19923;-77
2023/12/12 15:26:47;;;;;;;;;;;;;;;8.79;100.00;99277.69;4880936;29;19927;-81
2023/12/12 15:29:53;;;;;;;;;;;;;;;8.85;100.00;99272.91;4883163;29;19922;-77
2023/12/12 15:32:59;;;;;;;;;;;;;;;8.86;100.00;99260.72;4900416;29;19927;-76
2023/12/12 15:36:04;;;;;;;;;;;;;;;8.87;100.00;99256.31;4897547;29;20057;-83
2023/12/12 15:39:07;;;;;;;;;;;;;;;8.86;100.00;99255.50;4899569;29;20496;-77
2023/12/12 15:42:57;;;;;;;;;;;;;;;;;;;;;
2023/12/12 15:46:50;;;;;;;;;;;;;;;8.80;100.00;99233.28;4889972;29;19951;-77
2023/12/12 15:49:54;;;;;;;;;;;;;;;8.79;100.00;99225.56;4889880;29;20010;-77
2023/12/12 15:52:57;;;;;;;;;;;;;;;8.80;100.00;99219.41;4880864;29;19927;-77
2023/12/12 15:56:00;;;;;;;;;;;;;;;8.76;100.00;99208.34;4897295;29;19942;-77
2023/12/12 15:59:04;;;;;;;;;;;;;;;8.80;100.00;99211.59;4890483;29;20287;-78
2023/12/12 16:02:07;;;;;;;;;;;;;;;8.76;100.00;99199.72;4897060;29;20302;-78
2023/12/12 16:05:11;;;;;;;;;;;;;;;8.74;100.00;99209.38;4884895;29;19948;-78
2023/12/12 16:08:14;;;;;;;;;;;;;;;8.73;100.00;99203.34;4880282;29;20052;-78
2023/12/12 16:11:18;;;;;;;;;;;;;;;8.73;100.00;99199.91;4880218;29;19963;-79
2023/12/12 16:14:21;;;;;;;;;;;;;;;8.68;100.00;99196.75;4881442;29;19923;-80
2023/12/12 16:17:24;;;;;;;;;;;;;;;8.72;100.00;99191.25;4879926;29;20403;-79
2023/12/12 16:20:28;;;;;;;;;;;;;;;8.74;100.00;99189.41;4878619;29;20398;-79
2023/12/12 16:23:32;;;;;;;;;;;;;;;8.73;100.00;99186.88;4879269;29;20070;-81
2023/12/12 16:26:36;;;;;;;;;;;;;;;8.71;100.00;99189.59;4886228;29;19967;-79